sensor_id;sensor_type;location;lat;lon;timestamp;pressure;altitude;pressure_sealevel;temperature;humidity
76994;BME280;66749;47.406;18.822;2024-02-23T00:00:03;99045.41;;;10.88;60.27
76994;BME280;66749;47.406;18.822;2024-02-23T00:00:37;99043.53;;;10.90;60.17
76994;BME280;66749;47.406;18.822;2024-02-23T00:01:09;99043.53;;;10.90;60.22
76994;BME280;66749;47.406;18.822;2024-02-23T00:01:47;99051.38;;;10.90;60.38
76994;BME280;66749;47.406;18.822;2024-02-23T00:02:19;99044.50;;;10.89;59.90
76994;BME280;66749;47.406;18.822;2024-02-23T00:02:51;99041.03;;;10.88;60.41
76994;BME280;66749;47.406;18.822;2024-02-23T00:03:25;99053.25;;;10.88;60.11
76994;BME280;66749;47.406;18.822;2024-02-23T00:03:57;99040.09;;;10.89;60.18
76994;BME280;66749;47.406;18.822;2024-02-23T00:04:29;99048.50;;;10.93;59.65
76994;BME280;66749;47.406;18.822;2024-02-23T00:05:01;99044.09;;;10.93;59.76
76994;BME280;66749;47.406;18.822;2024-02-23T00:05:33;99051.00;;;10.94;59.97
76994;BME280;66749;47.406;18.822;2024-02-23T00:06:06;99042.72;;;10.89;60.10
76994;BME280;66749;47.406;18.822;2024-02-23T00:06:38;99047.69;;;10.92;60.14
76994;BME280;66749;47.406;18.822;2024-02-23T00:07:10;99043.28;;;10.93;59.70
76994;BME280;66749;47.406;18.822;2024-02-23T00:07:42;99043.97;;;10.95;59.60
76994;BME280;66749;47.406;18.822;2024-02-23T00:08:14;99043.06;;;10.96;60.12
76994;BME280;66749;47.406;18.822;2024-02-23T00:08:45;99045.53;;;10.97;59.64
76994;BME280;66749;47.406;18.822;2024-02-23T00:09:17;99044.59;;;10.98;59.48
76994;BME280;66749;47.406;18.822;2024-02-23T00:09:49;99046.13;;;11.01;59.76
76994;BME280;66749;47.406;18.822;2024-02-23T00:10:21;99041.97;;;10.98;59.69
76994;BME280;66749;47.406;18.822;2024-02-23T00:10:53;99052.41;;;10.98;59.36
76994;BME280;66749;47.406;18.822;2024-02-23T00:11:25;99045.28;;;11.00;59.24
76994;BME280;66749;47.406;18.822;2024-02-23T00:11:59;99045.06;;;11.03;59.04
76994;BME280;66749;47.406;18.822;2024-02-23T00:12:32;99039.72;;;11.05;59.29
76994;BME280;66749;47.406;18.822;2024-02-23T00:13:04;99047.53;;;11.05;59.10
76994;BME280;66749;47.406;18.822;2024-02-23T00:13:36;99038.88;;;11.04;59.07
76994;BME280;66749;47.406;18.822;2024-02-23T00:14:12;99043.84;;;11.07;58.81
76994;BME280;66749;47.406;18.822;2024-02-23T00:14:44;99047.41;;;11.06;59.21
76994;BME280;66749;47.406;18.822;2024-02-23T00:15:16;99050.84;;;11.07;59.37
76994;BME280;66749;47.406;18.822;2024-02-23T00:15:48;99043.16;;;11.05;59.40
76994;BME280;66749;47.406;18.822;2024-02-23T00:16:20;99052.63;;;11.06;59.11
76994;BME280;66749;47.406;18.822;2024-02-23T00:16:52;99052.50;;;11.08;58.89
76994;BME280;66749;47.406;18.822;2024-02-23T00:17:24;99048.13;;;11.08;59.09
76994;BME280;66749;47.406;18.822;2024-02-23T00:17:56;99050.59;;;11.10;58.66
76994;BME280;66749;47.406;18.822;2024-02-23T00:18:28;99051.69;;;11.07;59.19
76994;BME280;66749;47.406;18.822;2024-02-23T00:19:00;99049.75;;;11.09;59.41
76994;BME280;66749;47.406;18.822;2024-02-23T00:19:32;99051.31;;;11.12;58.91
76994;BME280;66749;47.406;18.822;2024-02-23T00:20:05;99047.75;;;11.13;58.90
76994;BME280;66749;47.406;18.822;2024-02-23T00:20:37;99056.53;;;11.12;59.08
76994;BME280;66749;47.406;18.822;2024-02-23T00:21:09;99053.09;;;11.11;59.06
76994;BME280;66749;47.406;18.822;2024-02-23T00:21:41;99045.28;;;11.11;59.04
76994;BME280;66749;47.406;18.822;2024-02-23T00:22:14;99047.63;;;11.15;59.13
76994;BME280;66749;47.406;18.822;2024-02-23T00:22:46;99048.47;;;11.15;58.71
76994;BME280;66749;47.406;18.822;2024-02-23T00:23:18;99045.97;;;11.14;58.92
76994;BME280;66749;47.406;18.822;2024-02-23T00:23:51;99052.84;;;11.15;58.37
76994;BME280;66749;47.406;18.822;2024-02-23T00:24:22;99059.50;;;11.19;59.00
76994;BME280;66749;47.406;18.822;2024-02-23T00:24:54;99045.59;;;11.18;58.83
76994;BME280;66749;47.406;18.822;2024-02-23T00:25:26;99061.03;;;11.21;58.72
76994;BME280;66749;47.406;18.822;2024-02-23T00:25:58;99047.00;;;11.22;58.56
76994;BME280;66749;47.406;18.822;2024-02-23T00:26:30;99050.72;;;11.20;58.98
76994;BME280;66749;47.406;18.822;2024-02-23T00:27:02;99043.69;;;11.20;58.56
76994;BME280;66749;47.406;18.822;2024-02-23T00:27:34;99047.84;;;11.23;58.54
76994;BME280;66749;47.406;18.822;2024-02-23T00:28:06;99053.31;;;11.20;58.91
76994;BME280;66749;47.406;18.822;2024-02-23T00:28:39;99049.88;;;11.19;58.51
76994;BME280;66749;47.406;18.822;2024-02-23T00:29:11;99040.97;;;11.22;58.60
76994;BME280;66749;47.406;18.822;2024-02-23T00:29:43;99036.44;;;11.24;58.61
76994;BME280;66749;47.406;18.822;2024-02-23T00:30:16;99040.00;;;11.23;58.55
76994;BME280;66749;47.406;18.822;2024-02-23T00:30:48;99034.91;;;11.21;58.64
76994;BME280;66749;47.406;18.822;2024-02-23T00:31:19;99036.94;;;11.18;58.94
76994;BME280;66749;47.406;18.822;2024-02-23T00:31:51;99040.13;;;11.21;59.06
76994;BME280;66749;47.406;18.822;2024-02-23T00:32:23;99037.66;;;11.20;58.99
76994;BME280;66749;47.406;18.822;2024-02-23T00:32:55;99036.69;;;11.21;58.52
76994;BME280;66749;47.406;18.822;2024-02-23T00:33:27;99045.22;;;11.23;58.56
76994;BME280;66749;47.406;18.822;2024-02-23T00:33:59;99047.72;;;11.24;59.17
76994;BME280;66749;47.406;18.822;2024-02-23T00:34:31;99036.69;;;11.21;58.63
76994;BME280;66749;47.406;18.822;2024-02-23T00:35:04;99033.97;;;11.22;58.60
76994;BME280;66749;47.406;18.822;2024-02-23T00:35:36;99038.34;;;11.22;59.16
76994;BME280;66749;47.406;18.822;2024-02-23T00:36:08;99043.56;;;11.22;59.04
76994;BME280;66749;47.406;18.822;2024-02-23T00:36:41;99036.00;;;11.19;59.08
76994;BME280;66749;47.406;18.822;2024-02-23T00:37:13;99047.00;;;11.22;58.90
76994;BME280;66749;47.406;18.822;2024-02-23T00:37:45;99044.28;;;11.24;59.02
76994;BME280;66749;47.406;18.822;2024-02-23T00:38:17;99044.66;;;11.19;59.42
76994;BME280;66749;47.406;18.822;2024-02-23T00:38:49;99040.13;;;11.21;59.56
76994;BME280;66749;47.406;18.822;2024-02-23T00:39:21;99044.28;;;11.24;59.22
76994;BME280;66749;47.406;18.822;2024-02-23T00:39:53;99040.84;;;11.23;59.22
76994;BME280;66749;47.406;18.822;2024-02-23T00:40:25;99044.16;;;11.25;58.98
76994;BME280;66749;47.406;18.822;2024-02-23T00:40:57;99051.41;;;11.22;59.37
76994;BME280;66749;47.406;18.822;2024-02-23T00:41:29;99046.19;;;11.22;59.43
76994;BME280;66749;47.406;18.822;2024-02-23T00:42:01;99043.44;;;11.23;59.10
76994;BME280;66749;47.406;18.822;2024-02-23T00:42:32;99048.19;;;11.18;59.26
76994;BME280;66749;47.406;18.822;2024-02-23T00:43:04;99055.09;;;11.19;59.54
76994;BME280;66749;47.406;18.822;2024-02-23T00:43:38;99040.25;;;11.20;59.55
76994;BME280;66749;47.406;18.822;2024-02-23T00:44:11;99051.41;;;11.22;59.68
76994;BME280;66749;47.406;18.822;2024-02-23T00:44:46;99050.59;;;11.21;59.53
76994;BME280;66749;47.406;18.822;2024-02-23T00:45:18;99052.25;;;11.22;59.57
76994;BME280;66749;47.406;18.822;2024-02-23T00:45:50;99041.91;;;11.21;59.70
76994;BME280;66749;47.406;18.822;2024-02-23T00:46:21;99048.09;;;11.20;59.71
76994;BME280;66749;47.406;18.822;2024-02-23T00:46:53;99048.09;;;11.20;60.27
76994;BME280;66749;47.406;18.822;2024-02-23T00:47:26;99050.72;;;11.20;59.99
76994;BME280;66749;47.406;18.822;2024-02-23T00:47:59;99039.44;;;11.19;60.20
76994;BME280;66749;47.406;18.822;2024-02-23T00:48:31;99040.25;;;11.20;60.18
76994;BME280;66749;47.406;18.822;2024-02-23T00:49:03;99044.53;;;11.21;60.46
76994;BME280;66749;47.406;18.822;2024-02-23T00:49:35;99049.88;;;11.19;60.55
76994;BME280;66749;47.406;18.822;2024-02-23T00:50:07;99044.06;;;11.16;60.74
76994;BME280;66749;47.406;18.822;2024-02-23T00:50:39;99037.88;;;11.17;60.97
76994;BME280;66749;47.406;18.822;2024-02-23T00:51:11;99047.50;;;11.16;61.16
76994;BME280;66749;47.406;18.822;2024-02-23T00:51:43;99039.44;;;11.19;60.88
76994;BME280;66749;47.406;18.822;2024-02-23T00:52:15;99041.09;;;11.20;61.24
76994;BME280;66749;47.406;18.822;2024-02-23T00:52:47;99031.69;;;11.18;61.37
76994;BME280;66749;47.406;18.822;2024-02-23T00:53:20;99032.78;;;11.15;61.49
76994;BME280;66749;47.406;18.822;2024-02-23T00:53:52;99040.88;;;11.12;61.85
76994;BME280;66749;47.406;18.822;2024-02-23T00:54:24;99044.81;;;11.06;62.33
76994;BME280;66749;47.406;18.822;2024-02-23T00:54:56;99034.94;;;11.10;62.03
76994;BME280;66749;47.406;18.822;2024-02-23T00:55:28;99040.28;;;11.08;61.99
76994;BME280;66749;47.406;18.822;2024-02-23T00:55:59;99046.19;;;11.10;62.43
76994;BME280;66749;47.406;18.822;2024-02-23T00:56:31;99038.50;;;11.09;62.59
76994;BME280;66749;47.406;18.822;2024-02-23T00:57:20;99043.72;;;11.09;62.81
76994;BME280;66749;47.406;18.822;2024-02-23T00:57:59;99041.22;;;11.07;62.93
76994;BME280;66749;47.406;18.822;2024-02-23T00:58:30;99040.41;;;11.07;63.13
76994;BME280;66749;47.406;18.822;2024-02-23T00:59:02;99042.69;;;11.00;63.49
76994;BME280;66749;47.406;18.822;2024-02-23T00:59:34;99033.06;;;11.01;63.64
76994;BME280;66749;47.406;18.822;2024-02-23T01:00:06;99034.84;;;11.00;64.08
76994;BME280;66749;47.406;18.822;2024-02-23T01:00:41;99044.19;;;11.03;64.14
76994;BME280;66749;47.406;18.822;2024-02-23T01:01:13;99045.28;;;11.00;64.25
76994;BME280;66749;47.406;18.822;2024-02-23T01:01:45;99038.66;;;10.96;64.59
76994;BME280;66749;47.406;18.822;2024-02-23T01:02:17;99040.06;;;11.00;64.45
76994;BME280;66749;47.406;18.822;2024-02-23T01:02:49;99044.59;;;10.98;64.88
76994;BME280;66749;47.406;18.822;2024-02-23T01:03:21;99032.72;;;10.94;65.11
76994;BME280;66749;47.406;18.822;2024-02-23T01:03:53;99040.69;;;10.93;64.92
76994;BME280;66749;47.406;18.822;2024-02-23T01:04:25;99036.16;;;10.95;65.03
76994;BME280;66749;47.406;18.822;2024-02-23T01:04:57;99044.94;;;10.94;65.21
76994;BME280;66749;47.406;18.822;2024-02-23T01:05:30;99038.31;;;10.90;65.32
76994;BME280;66749;47.406;18.822;2024-02-23T01:06:02;99037.38;;;10.91;65.28
76994;BME280;66749;47.406;18.822;2024-02-23T01:06:34;99044.38;;;10.90;65.61
76994;BME280;66749;47.406;18.822;2024-02-23T01:07:06;99036.41;;;10.92;65.74
76994;BME280;66749;47.406;18.822;2024-02-23T01:07:38;99039.28;;;10.89;65.79
76994;BME280;66749;47.406;18.822;2024-02-23T01:08:10;99036.75;;;10.87;65.73
76994;BME280;66749;47.406;18.822;2024-02-23T01:08:42;99031.44;;;10.89;65.90
76994;BME280;66749;47.406;18.822;2024-02-23T01:09:14;99035.59;;;10.91;66.05
76994;BME280;66749;47.406;18.822;2024-02-23T01:09:48;99034.97;;;10.88;66.23
76994;BME280;66749;47.406;18.822;2024-02-23T01:10:19;99035.59;;;10.80;66.45
76994;BME280;66749;47.406;18.822;2024-02-23T01:10:51;99038.78;;;10.83;66.58
76994;BME280;66749;47.406;18.822;2024-02-23T01:11:23;99031.09;;;10.82;66.87
76994;BME280;66749;47.406;18.822;2024-02-23T01:11:56;99029.44;;;10.81;66.91
76994;BME280;66749;47.406;18.822;2024-02-23T01:12:27;99030.50;;;10.78;67.12
76994;BME280;66749;47.406;18.822;2024-02-23T01:12:59;99030.50;;;10.78;67.19
76994;BME280;66749;47.406;18.822;2024-02-23T01:13:31;99029.44;;;10.81;67.19
76994;BME280;66749;47.406;18.822;2024-02-23T01:14:03;99034.75;;;10.79;67.69
76994;BME280;66749;47.406;18.822;2024-02-23T01:14:36;99029.78;;;10.76;67.54
76994;BME280;66749;47.406;18.822;2024-02-23T01:15:08;99026.34;;;10.76;67.92
76994;BME280;66749;47.406;18.822;2024-02-23T01:15:41;99034.19;;;10.76;67.98
76994;BME280;66749;47.406;18.822;2024-02-23T01:16:13;99029.91;;;10.75;68.12
76994;BME280;66749;47.406;18.822;2024-02-23T01:16:45;99023.13;;;10.72;68.20
76994;BME280;66749;47.406;18.822;2024-02-23T01:17:17;99024.47;;;10.67;68.67
76994;BME280;66749;47.406;18.822;2024-02-23T01:17:49;99026.84;;;10.70;68.26
76994;BME280;66749;47.406;18.822;2024-02-23T01:18:21;99033.00;;;10.69;68.34
76994;BME280;66749;47.406;18.822;2024-02-23T01:18:53;99032.88;;;10.70;68.46
76994;BME280;66749;47.406;18.822;2024-02-23T01:19:25;99032.06;;;10.70;68.76
76994;BME280;66749;47.406;18.822;2024-02-23T01:19:57;99023.66;;;10.66;68.78
76994;BME280;66749;47.406;18.822;2024-02-23T01:20:29;99026.00;;;10.69;68.81
76994;BME280;66749;47.406;18.822;2024-02-23T01:21:01;99025.44;;;10.66;69.19
76994;BME280;66749;47.406;18.822;2024-02-23T01:21:33;99030.03;;;10.62;69.18
76994;BME280;66749;47.406;18.822;2024-02-23T01:22:05;99035.75;;;10.67;69.27
76994;BME280;66749;47.406;18.822;2024-02-23T01:22:37;99032.31;;;10.67;69.28
76994;BME280;66749;47.406;18.822;2024-02-23T01:23:10;99029.69;;;10.67;69.11
76994;BME280;66749;47.406;18.822;2024-02-23T01:23:42;99029.22;;;10.62;69.61
76994;BME280;66749;47.406;18.822;2024-02-23T01:24:13;99027.56;;;10.61;69.74
76994;BME280;66749;47.406;18.822;2024-02-23T01:24:45;99030.03;;;10.62;69.92
76994;BME280;66749;47.406;18.822;2024-02-23T01:25:17;99036.09;;;10.63;70.17
76994;BME280;66749;47.406;18.822;2024-02-23T01:25:49;99023.16;;;10.61;69.87
76994;BME280;66749;47.406;18.822;2024-02-23T01:26:21;99025.66;;;10.63;70.11
76994;BME280;66749;47.406;18.822;2024-02-23T01:26:53;99023.03;;;10.63;70.07
76994;BME280;66749;47.406;18.822;2024-02-23T01:27:26;99031.94;;;10.60;70.14
76994;BME280;66749;47.406;18.822;2024-02-23T01:27:58;99022.34;;;10.61;69.96
76994;BME280;66749;47.406;18.822;2024-02-23T01:28:30;99029.09;;;10.63;70.59
76994;BME280;66749;47.406;18.822;2024-02-23T01:29:02;99025.53;;;10.64;70.68
76994;BME280;66749;47.406;18.822;2024-02-23T01:29:35;99021.25;;;10.63;70.67
76994;BME280;66749;47.406;18.822;2024-02-23T01:30:07;99023.03;;;10.63;71.01
76994;BME280;66749;47.406;18.822;2024-02-23T01:30:39;99019.84;;;10.59;70.97
76994;BME280;66749;47.406;18.822;2024-02-23T01:31:11;99018.31;;;10.56;71.29
76994;BME280;66749;47.406;18.822;2024-02-23T01:31:43;99020.91;;;10.56;71.50
76994;BME280;66749;47.406;18.822;2024-02-23T01:32:15;99018.19;;;10.58;71.08
76994;BME280;66749;47.406;18.822;2024-02-23T01:32:48;99012.50;;;10.53;71.66
76994;BME280;66749;47.406;18.822;2024-02-23T01:33:21;99016.78;;;10.54;71.50
76994;BME280;66749;47.406;18.822;2024-02-23T01:33:54;99017.59;;;10.54;71.85
76994;BME280;66749;47.406;18.822;2024-02-23T01:34:26;99005.50;;;10.53;71.63
76994;BME280;66749;47.406;18.822;2024-02-23T01:34:58;99017.59;;;10.54;71.69
76994;BME280;66749;47.406;18.822;2024-02-23T01:35:30;99014.41;;;10.51;71.17
76994;BME280;66749;47.406;18.822;2024-02-23T01:36:02;99015.84;;;10.44;71.83
76994;BME280;66749;47.406;18.822;2024-02-23T01:36:34;99011.31;;;10.46;71.92
76994;BME280;66749;47.406;18.822;2024-02-23T01:37:07;99011.19;;;10.47;72.10
76994;BME280;66749;47.406;18.822;2024-02-23T01:37:39;99009.28;;;10.49;71.61
76994;BME280;66749;47.406;18.822;2024-02-23T01:38:11;99009.28;;;10.49;71.85
76994;BME280;66749;47.406;18.822;2024-02-23T01:38:43;99009.06;;;10.52;71.91
76994;BME280;66749;47.406;18.822;2024-02-23T01:39:15;99004.91;;;10.50;71.97
76994;BME280;66749;47.406;18.822;2024-02-23T01:39:47;99009.41;;;10.48;71.96
76994;BME280;66749;47.406;18.822;2024-02-23T01:40:19;98995.81;;;10.44;72.45
76994;BME280;66749;47.406;18.822;2024-02-23T01:40:51;99008.09;;;10.42;71.96
76994;BME280;66749;47.406;18.822;2024-02-23T01:41:23;99002.88;;;10.42;72.22
76994;BME280;66749;47.406;18.822;2024-02-23T01:41:55;99006.22;;;10.44;72.34
76994;BME280;66749;47.406;18.822;2024-02-23T01:42:27;99005.28;;;10.45;71.79
76994;BME280;66749;47.406;18.822;2024-02-23T01:43:05;99001.72;;;10.46;72.11
76994;BME280;66749;47.406;18.822;2024-02-23T01:43:36;99003.38;;;10.47;72.62
76994;BME280;66749;47.406;18.822;2024-02-23T01:44:08;99005.28;;;10.45;72.25
76994;BME280;66749;47.406;18.822;2024-02-23T01:44:40;99005.97;;;10.47;72.26
76994;BME280;66749;47.406;18.822;2024-02-23T01:45:12;99002.66;;;10.45;72.98
76994;BME280;66749;47.406;18.822;2024-02-23T01:45:44;98997.47;;;10.45;72.80
76994;BME280;66749;47.406;18.822;2024-02-23T01:46:17;99003.38;;;10.47;72.81
76994;BME280;66749;47.406;18.822;2024-02-23T01:46:50;99001.72;;;10.46;72.35
76994;BME280;66749;47.406;18.822;2024-02-23T01:47:25;99003.50;;;10.46;72.48
76994;BME280;66749;47.406;18.822;2024-02-23T01:48:00;99010.50;;;10.45;73.10
76994;BME280;66749;47.406;18.822;2024-02-23T01:48:33;99008.97;;;10.43;73.10
76994;BME280;66749;47.406;18.822;2024-02-23T01:49:07;98999.38;;;10.43;72.94
76994;BME280;66749;47.406;18.822;2024-02-23T01:49:41;99004.31;;;10.46;72.79
76994;BME280;66749;47.406;18.822;2024-02-23T01:50:13;99006.22;;;10.44;73.30
76994;BME280;66749;47.406;18.822;2024-02-23T01:50:46;99003.75;;;10.43;73.31
76994;BME280;66749;47.406;18.822;2024-02-23T01:51:19;98999.59;;;10.40;73.28
76994;BME280;66749;47.406;18.822;2024-02-23T01:51:51;99009.78;;;10.43;73.17
76994;BME280;66749;47.406;18.822;2024-02-23T01:52:23;99005.41;;;10.44;73.34
76994;BME280;66749;47.406;18.822;2024-02-23T01:52:57;98997.47;;;10.45;73.36
76994;BME280;66749;47.406;18.822;2024-02-23T01:53:31;99002.66;;;10.45;73.21
76994;BME280;66749;47.406;18.822;2024-02-23T01:54:04;99001.72;;;10.46;73.30
76994;BME280;66749;47.406;18.822;2024-02-23T01:54:37;99001.72;;;10.46;73.45
76994;BME280;66749;47.406;18.822;2024-02-23T01:55:09;99005.16;;;10.47;73.75
76994;BME280;66749;47.406;18.822;2024-02-23T01:55:41;99007.88;;;10.45;73.40
76994;BME280;66749;47.406;18.822;2024-02-23T01:56:15;99002.88;;;10.42;74.22
76994;BME280;66749;47.406;18.822;2024-02-23T01:56:51;99001.13;;;10.43;73.96
76994;BME280;66749;47.406;18.822;2024-02-23T01:57:24;99003.63;;;10.44;73.73
76994;BME280;66749;47.406;18.822;2024-02-23T01:58:17;99000.19;;;10.44;74.06
76994;BME280;66749;47.406;18.822;2024-02-23T01:58:49;98999.47;;;10.42;74.10
76994;BME280;66749;47.406;18.822;2024-02-23T01:59:23;99002.19;;;10.40;74.44
76994;BME280;66749;47.406;18.822;2024-02-23T01:59:55;99000.28;;;10.42;74.17
76994;BME280;66749;47.406;18.822;2024-02-23T02:00:27;99001.25;;;10.41;73.90
76994;BME280;66749;47.406;18.822;2024-02-23T02:01:00;98998.41;;;10.44;74.12
76994;BME280;66749;47.406;18.822;2024-02-23T02:01:32;98998.53;;;10.43;74.31
76994;BME280;66749;47.406;18.822;2024-02-23T02:02:04;99007.06;;;10.45;74.40
76994;BME280;66749;47.406;18.822;2024-02-23T02:02:38;99002.66;;;10.45;74.49
76994;BME280;66749;47.406;18.822;2024-02-23T02:03:10;98997.09;;;10.39;74.89
76994;BME280;66749;47.406;18.822;2024-02-23T02:03:43;98999.59;;;10.40;74.27
76994;BME280;66749;47.406;18.822;2024-02-23T02:04:15;98999.84;;;10.37;74.76
76994;BME280;66749;47.406;18.822;2024-02-23T02:04:47;98996.16;;;10.40;74.69
76994;BME280;66749;47.406;18.822;2024-02-23T02:05:19;98998.63;;;10.41;74.95
76994;BME280;66749;47.406;18.822;2024-02-23T02:05:53;98999.00;;;10.37;74.83
76994;BME280;66749;47.406;18.822;2024-02-23T02:06:26;99006.00;;;10.36;74.97
76994;BME280;66749;47.406;18.822;2024-02-23T02:06:59;98999.72;;;10.39;75.34
76994;BME280;66749;47.406;18.822;2024-02-23T02:07:32;99000.78;;;10.36;75.76
76994;BME280;66749;47.406;18.822;2024-02-23T02:08:05;98998.19;;;10.36;75.34
76994;BME280;66749;47.406;18.822;2024-02-23T02:08:38;98996.03;;;10.30;75.75
76994;BME280;66749;47.406;18.822;2024-02-23T02:09:10;99000.06;;;10.34;75.30
76994;BME280;66749;47.406;18.822;2024-02-23T02:09:42;98993.19;;;10.33;75.74
76994;BME280;66749;47.406;18.822;2024-02-23T02:10:14;98999.47;;;10.31;76.42
76994;BME280;66749;47.406;18.822;2024-02-23T02:10:46;98998.41;;;10.33;75.85
76994;BME280;66749;47.406;18.822;2024-02-23T02:11:19;98997.69;;;10.31;75.87
76994;BME280;66749;47.406;18.822;2024-02-23T02:11:51;98993.19;;;10.33;75.97
76994;BME280;66749;47.406;18.822;2024-02-23T02:12:29;98993.66;;;10.27;76.31
76994;BME280;66749;47.406;18.822;2024-02-23T02:13:02;98984.91;;;10.28;76.33
76994;BME280;66749;47.406;18.822;2024-02-23T02:13:35;98985.75;;;10.28;76.16
76994;BME280;66749;47.406;18.822;2024-02-23T02:14:07;98991.66;;;10.31;76.78
76994;BME280;66749;47.406;18.822;2024-02-23T02:14:39;98991.78;;;10.29;76.51
76994;BME280;66749;47.406;18.822;2024-02-23T02:15:11;98985.75;;;10.28;76.33
76994;BME280;66749;47.406;18.822;2024-02-23T02:15:43;98992.47;;;10.31;76.69
76994;BME280;66749;47.406;18.822;2024-02-23T02:16:18;98993.44;;;10.30;76.51
76994;BME280;66749;47.406;18.822;2024-02-23T02:16:49;98989.63;;;10.23;76.67
76994;BME280;66749;47.406;18.822;2024-02-23T02:17:21;98989.63;;;10.23;77.30
76994;BME280;66749;47.406;18.822;2024-02-23T02:17:53;98985.34;;;10.22;77.04
76994;BME280;66749;47.406;18.822;2024-02-23T02:18:25;98992.00;;;10.26;76.95
76994;BME280;66749;47.406;18.822;2024-02-23T02:18:57;98996.25;;;10.27;77.00
76994;BME280;66749;47.406;18.822;2024-02-23T02:19:29;98985.94;;;10.25;76.85
76994;BME280;66749;47.406;18.822;2024-02-23T02:20:03;98995.69;;;10.23;77.14
76994;BME280;66749;47.406;18.822;2024-02-23T02:20:49;98988.69;;;10.24;77.15
76994;BME280;66749;47.406;18.822;2024-02-23T02:21:22;98989.50;;;10.24;77.52
76994;BME280;66749;47.406;18.822;2024-02-23T02:21:56;98990.56;;;10.22;77.50
76994;BME280;66749;47.406;18.822;2024-02-23T02:22:28;98993.06;;;10.23;77.17
76994;BME280;66749;47.406;18.822;2024-02-23T02:23:00;98992.13;;;10.24;77.21
76994;BME280;66749;47.406;18.822;2024-02-23T02:23:32;98981.69;;;10.24;77.06
76994;BME280;66749;47.406;18.822;2024-02-23T02:24:06;98994.72;;;10.24;77.34
76994;BME280;66749;47.406;18.822;2024-02-23T02:24:38;98989.72;;;10.21;78.02
76994;BME280;66749;47.406;18.822;2024-02-23T02:25:14;98986.63;;;10.16;77.55
76994;BME280;66749;47.406;18.822;2024-02-23T02:25:57;98989.13;;;10.18;77.41
76994;BME280;66749;47.406;18.822;2024-02-23T02:26:30;98990.78;;;10.19;77.07
76994;BME280;66749;47.406;18.822;2024-02-23T02:27:02;98985.47;;;10.20;76.98
76994;BME280;66749;47.406;18.822;2024-02-23T02:27:34;98989.81;;;10.20;77.28
76994;BME280;66749;47.406;18.822;2024-02-23T02:28:06;98981.19;;;10.19;77.28
76994;BME280;66749;47.406;18.822;2024-02-23T02:28:39;98991.59;;;10.19;77.33
76994;BME280;66749;47.406;18.822;2024-02-23T02:29:11;98984.63;;;10.20;77.36
76994;BME280;66749;47.406;18.822;2024-02-23T02:29:43;98989.13;;;10.18;77.49
76994;BME280;66749;47.406;18.822;2024-02-23T02:30:15;98989.13;;;10.18;78.00
76994;BME280;66749;47.406;18.822;2024-02-23T02:30:48;98985.56;;;10.19;77.39
76994;BME280;66749;47.406;18.822;2024-02-23T02:31:20;98987.13;;;10.21;77.69
76994;BME280;66749;47.406;18.822;2024-02-23T02:31:52;98985.34;;;10.22;77.55
76994;BME280;66749;47.406;18.822;2024-02-23T02:32:24;98977.53;;;10.22;77.67
76994;BME280;66749;47.406;18.822;2024-02-23T02:32:56;98989.63;;;10.23;77.89
76994;BME280;66749;47.406;18.822;2024-02-23T02:33:28;98987.03;;;10.23;77.97
76994;BME280;66749;47.406;18.822;2024-02-23T02:34:00;98990.34;;;10.25;78.06
76994;BME280;66749;47.406;18.822;2024-02-23T02:34:32;98985.94;;;10.25;78.25
76994;BME280;66749;47.406;18.822;2024-02-23T02:35:05;98986.91;;;10.24;78.12
76994;BME280;66749;47.406;18.822;2024-02-23T02:35:37;98985.25;;;10.23;78.34
76994;BME280;66749;47.406;18.822;2024-02-23T02:36:09;98985.34;;;10.22;77.87
76994;BME280;66749;47.406;18.822;2024-02-23T02:36:41;98987.03;;;10.23;78.00
76994;BME280;66749;47.406;18.822;2024-02-23T02:37:13;98988.69;;;10.24;78.06
76994;BME280;66749;47.406;18.822;2024-02-23T02:37:45;98981.81;;;10.23;78.00
76994;BME280;66749;47.406;18.822;2024-02-23T02:38:17;98987.22;;;10.20;78.15
76994;BME280;66749;47.406;18.822;2024-02-23T02:38:49;98983.69;;;10.21;77.64
76994;BME280;66749;47.406;18.822;2024-02-23T02:39:21;98982.53;;;10.25;77.54
76994;BME280;66749;47.406;18.822;2024-02-23T02:39:53;98986.06;;;10.24;77.54
76994;BME280;66749;47.406;18.822;2024-02-23T02:40:25;98992.25;;;10.23;78.24
76994;BME280;66749;47.406;18.822;2024-02-23T02:40:57;98989.72;;;10.21;78.41
76994;BME280;66749;47.406;18.822;2024-02-23T02:41:29;98984.44;;;10.23;77.95
76994;BME280;66749;47.406;18.822;2024-02-23T02:42:02;98984.44;;;10.23;78.50
76994;BME280;66749;47.406;18.822;2024-02-23T02:42:34;98982.75;;;10.22;78.03
76994;BME280;66749;47.406;18.822;2024-02-23T02:43:06;98990.34;;;10.25;78.03
76994;BME280;66749;47.406;18.822;2024-02-23T02:43:38;98980.03;;;10.23;78.26
76994;BME280;66749;47.406;18.822;2024-02-23T02:44:10;98984.53;;;10.21;78.73
76994;BME280;66749;47.406;18.822;2024-02-23T02:44:44;98990.56;;;10.22;78.62
76994;BME280;66749;47.406;18.822;2024-02-23T02:45:16;98984.53;;;10.21;79.00
76994;BME280;66749;47.406;18.822;2024-02-23T02:45:51;98987.84;;;10.23;78.91
76994;BME280;66749;47.406;18.822;2024-02-23T02:46:23;98983.69;;;10.21;78.98
76994;BME280;66749;47.406;18.822;2024-02-23T02:46:55;98982.00;;;10.20;79.34
76994;BME280;66749;47.406;18.822;2024-02-23T02:47:27;98985.47;;;10.20;78.72
76994;BME280;66749;47.406;18.822;2024-02-23T02:48:02;98977.75;;;10.19;78.31
76994;BME280;66749;47.406;18.822;2024-02-23T02:48:35;98977.75;;;10.19;78.47
76994;BME280;66749;47.406;18.822;2024-02-23T02:49:07;98984.72;;;10.18;78.82
76994;BME280;66749;47.406;18.822;2024-02-23T02:49:39;98985.69;;;10.17;79.60
76994;BME280;66749;47.406;18.822;2024-02-23T02:50:12;98986.50;;;10.18;79.19